createdAt,value
2024-02-14T00:00:09.881Z,33.54
2024-02-14T00:01:09.952Z,33.57
2024-02-14T00:02:09.898Z,33.56
2024-02-14T00:03:10.085Z,33.58
2024-02-14T00:04:10.084Z,33.57
2024-02-14T00:05:10.014Z,33.58
2024-02-14T00:06:10.130Z,33.59
2024-02-14T00:07:10.165Z,33.60
2024-02-14T00:08:10.111Z,33.60
2024-02-14T00:09:10.252Z,33.58
2024-02-14T00:10:10.200Z,33.61
2024-02-14T00:11:10.216Z,33.64
2024-02-14T00:12:10.318Z,33.63
2024-02-14T00:13:10.302Z,33.62
2024-02-14T00:14:10.346Z,33.66
2024-02-14T00:15:10.399Z,33.69
2024-02-14T00:16:10.360Z,33.66
2024-02-14T00:17:10.405Z,33.68
2024-02-14T00:18:10.530Z,33.71
2024-02-14T00:19:10.530Z,33.70
2024-02-14T00:20:10.465Z,33.70
2024-02-14T00:21:10.604Z,33.72
2024-02-14T00:22:10.551Z,33.69
2024-02-14T00:23:10.518Z,33.71
2024-02-14T00:24:10.605Z,33.71
2024-02-14T00:25:10.715Z,33.71
2024-02-14T00:26:10.574Z,33.70
2024-02-14T00:27:10.616Z,33.75
2024-02-14T00:28:10.610Z,33.73
2024-02-14T00:29:10.589Z,33.73
2024-02-14T00:30:10.663Z,33.72
2024-02-14T00:31:10.632Z,33.72
2024-02-14T00:32:10.642Z,33.74
2024-02-14T00:33:10.906Z,33.73
2024-02-14T00:34:10.779Z,33.72
2024-02-14T00:35:10.743Z,33.72
2024-02-14T00:36:10.735Z,33.74
2024-02-14T00:37:10.730Z,33.75
2024-02-14T00:38:10.737Z,33.77
2024-02-14T00:39:10.813Z,33.76
2024-02-14T00:40:10.751Z,33.78
2024-02-14T00:41:11.073Z,33.76
2024-02-14T00:42:10.758Z,33.78
2024-02-14T00:43:10.784Z,33.79
2024-02-14T00:44:10.784Z,33.80
2024-02-14T00:45:10.862Z,33.78
2024-02-14T00:46:10.784Z,33.79
2024-02-14T00:47:10.791Z,33.77
2024-02-14T00:48:10.929Z,33.78
2024-02-14T00:49:10.967Z,33.81
2024-02-14T00:50:10.805Z,33.82
2024-02-14T00:51:11.100Z,33.87
2024-02-14T00:52:10.820Z,33.83
2024-02-14T00:53:10.871Z,33.83
2024-02-14T00:54:10.945Z,33.84
2024-02-14T00:55:10.903Z,33.86
2024-02-14T00:56:10.914Z,33.84
2024-02-14T00:57:10.916Z,33.89
2024-02-14T00:58:10.923Z,33.86
2024-02-14T00:59:10.929Z,33.90
2024-02-14T01:00:11.031Z,33.92
2024-02-14T01:01:10.980Z,33.90
2024-02-14T01:02:10.965Z,33.92
2024-02-14T01:03:10.971Z,33.91
2024-02-14T01:04:10.990Z,33.97
2024-02-14T01:05:11.011Z,33.94
2024-02-14T01:06:11.029Z,33.97
2024-02-14T01:07:10.980Z,33.97
2024-02-14T01:08:11.041Z,33.98
2024-02-14T01:09:11.029Z,33.97
2024-02-14T01:10:11.041Z,33.98
2024-02-14T01:11:11.077Z,34.00
2024-02-14T01:12:11.078Z,34.01
2024-02-14T01:13:11.094Z,34.01
2024-02-14T01:14:11.085Z,33.98
2024-02-14T01:15:11.190Z,33.99
2024-02-14T01:16:11.128Z,34.01
2024-02-14T01:17:11.114Z,34.02
2024-02-14T01:18:11.752Z,34.04
2024-02-14T01:19:11.221Z,34.02
2024-02-14T01:20:11.211Z,34.03
2024-02-14T01:21:11.197Z,34.01
2024-02-14T01:22:12.055Z,34.00
2024-02-14T01:23:11.169Z,34.01
2024-02-14T01:24:11.167Z,33.99
2024-02-14T01:25:11.202Z,33.94
2024-02-14T01:26:11.587Z,33.97
2024-02-14T01:27:11.272Z,33.93
2024-02-14T01:28:11.222Z,33.95
2024-02-14T01:29:11.277Z,33.94
2024-02-14T01:30:11.342Z,33.94
2024-02-14T01:31:11.313Z,33.95
2024-02-14T01:32:11.299Z,33.94
2024-02-14T01:33:11.513Z,33.94
2024-02-14T01:34:11.483Z,33.93
2024-02-14T01:35:11.384Z,33.90
2024-02-14T01:36:11.608Z,33.92
2024-02-14T01:37:11.379Z,33.91
2024-02-14T01:38:11.397Z,33.91
2024-02-14T01:39:11.414Z,33.94
2024-02-14T01:40:11.465Z,33.94
2024-02-14T01:41:11.428Z,33.95
2024-02-14T01:42:11.505Z,33.97
2024-02-14T01:43:11.477Z,33.95
2024-02-14T01:44:11.470Z,33.99
2024-02-14T01:45:11.521Z,34.00
2024-02-14T01:46:11.569Z,33.99
2024-02-14T01:47:11.505Z,34.02
2024-02-14T01:48:11.673Z,34.03
2024-02-14T01:49:11.631Z,34.05
2024-02-14T01:50:11.592Z,34.08
2024-02-14T01:51:12.100Z,34.10
2024-02-14T01:52:11.597Z,34.12
2024-02-14T01:53:11.628Z,34.15
2024-02-14T01:54:11.651Z,34.15
2024-02-14T01:55:11.692Z,34.17
2024-02-14T01:56:11.745Z,34.16
2024-02-14T01:57:11.799Z,34.15
2024-02-14T01:58:11.740Z,34.20
2024-02-14T01:59:11.756Z,34.14
2024-02-14T02:00:11.781Z,34.19
2024-02-14T02:01:11.790Z,34.20
2024-02-14T02:02:11.806Z,34.20
2024-02-14T02:03:11.819Z,34.17
2024-02-14T02:04:11.862Z,34.20
2024-02-14T02:05:11.926Z,34.22
2024-02-14T02:06:12.192Z,34.23
2024-02-14T02:07:11.962Z,34.23
2024-02-14T02:08:11.949Z,34.22
2024-02-14T02:09:12.028Z,34.22
2024-02-14T02:10:11.996Z,34.22
2024-02-14T02:11:12.058Z,34.19
2024-02-14T02:12:12.106Z,34.22
2024-02-14T02:13:12.057Z,34.19
2024-02-14T02:14:12.105Z,34.21
2024-02-14T02:15:12.212Z,34.19
2024-02-14T02:16:12.114Z,34.16
2024-02-14T02:17:12.189Z,34.16
2024-02-14T02:18:12.283Z,34.20
2024-02-14T02:19:12.336Z,34.19
2024-02-14T02:20:12.233Z,34.17
2024-02-14T02:21:12.313Z,34.20
2024-02-14T02:22:12.273Z,34.14
2024-02-14T02:23:12.289Z,34.18
2024-02-14T02:24:12.305Z,34.18
2024-02-14T02:25:12.347Z,34.17
2024-02-14T02:26:12.607Z,34.19
2024-02-14T02:27:12.363Z,34.20
2024-02-14T02:28:12.365Z,34.18
2024-02-14T02:29:12.390Z,34.21
2024-02-14T02:30:12.463Z,34.20
2024-02-14T02:31:12.488Z,34.23
2024-02-14T02:32:12.462Z,34.24
2024-02-14T02:33:12.619Z,34.24
2024-02-14T02:34:13.008Z,34.24
2024-02-14T02:35:12.589Z,34.28
2024-02-14T02:36:12.637Z,34.25
2024-02-14T02:37:12.635Z,34.25
2024-02-14T02:38:12.627Z,34.25
2024-02-14T02:39:12.636Z,34.26
2024-02-14T02:40:12.650Z,34.26
2024-02-14T02:41:12.647Z,34.27
2024-02-14T02:42:12.725Z,34.27
2024-02-14T02:43:12.735Z,34.25
2024-02-14T02:44:12.750Z,34.29
2024-02-14T02:45:12.949Z,34.28
2024-02-14T02:46:12.803Z,34.29
2024-02-14T02:47:12.793Z,34.31
2024-02-14T02:48:12.962Z,34.30
2024-02-14T02:49:13.019Z,34.34
2024-02-14T02:50:12.888Z,34.34
2024-02-14T02:51:12.929Z,34.34
2024-02-14T02:52:12.943Z,34.37
2024-02-14T02:53:12.947Z,34.37
2024-02-14T02:54:13.029Z,34.37
2024-02-14T02:55:13.024Z,34.40
2024-02-14T02:56:13.085Z,34.40
2024-02-14T02:57:13.083Z,34.47
2024-02-14T02:58:13.605Z,34.45
2024-02-14T02:59:13.199Z,34.50
2024-02-14T03:00:13.149Z,34.51
2024-02-14T03:01:13.284Z,34.54
2024-02-14T03:02:13.210Z,34.47
2024-02-14T03:03:13.251Z,34.50
2024-02-14T03:04:13.306Z,34.52
2024-02-14T03:05:13.322Z,34.54
2024-02-14T03:06:13.387Z,34.54
2024-02-14T03:07:13.299Z,34.57
2024-02-14T03:08:13.357Z,34.59
2024-02-14T03:09:13.437Z,34.58
2024-02-14T03:10:13.374Z,34.63
2024-02-14T03:11:13.576Z,34.63
2024-02-14T03:12:13.447Z,34.65
2024-02-14T03:13:13.504Z,34.65
2024-02-14T03:14:13.521Z,34.65
2024-02-14T03:15:13.601Z,34.70
2024-02-14T03:16:13.600Z,34.69
2024-02-14T03:17:13.625Z,34.74
2024-02-14T03:18:13.708Z,34.70
2024-02-14T03:19:13.735Z,34.78
2024-02-14T03:20:16.586Z,34.81
2024-02-14T03:21:13.736Z,34.81
2024-02-14T03:22:13.695Z,34.83
2024-02-14T03:23:13.704Z,34.83
2024-02-14T03:24:13.754Z,34.83
2024-02-14T03:25:13.737Z,34.84
2024-02-14T03:26:13.744Z,34.83
2024-02-14T03:27:13.787Z,34.85
2024-02-14T03:28:13.705Z,34.87
2024-02-14T03:29:13.704Z,34.88
2024-02-14T03:30:13.824Z,34.91
2024-02-14T03:31:13.722Z,34.96
2024-02-14T03:32:14.584Z,34.93
2024-02-14T03:33:13.807Z,34.96
2024-02-14T03:34:13.802Z,34.98
2024-02-14T03:35:13.724Z,34.92
2024-02-14T03:36:13.829Z,34.92
2024-02-14T03:37:13.726Z,34.98
2024-02-14T03:38:13.726Z,34.94
2024-02-14T03:39:13.770Z,34.94
2024-02-14T03:40:13.735Z,35.03
2024-02-14T03:41:14.091Z,34.96
2024-02-14T03:42:13.795Z,34.99
2024-02-14T03:43:13.756Z,35.03
2024-02-14T03:44:13.755Z,34.95
2024-02-14T03:45:13.885Z,34.96
2024-02-14T03:46:13.737Z,34.97
2024-02-14T03:47:13.735Z,34.97
2024-02-14T03:48:13.950Z,34.95
2024-02-14T03:49:14.005Z,34.89
2024-02-14T03:50:13.903Z,34.90
2024-02-14T03:51:14.012Z,34.90
2024-02-14T03:52:14.028Z,34.86
2024-02-14T03:53:14.039Z,34.84
2024-02-14T03:54:14.134Z,34.82
2024-02-14T03:55:14.144Z,34.84
2024-02-14T03:56:14.630Z,34.79
2024-02-14T03:57:14.305Z,34.79
2024-02-14T03:58:14.286Z,34.77
2024-02-14T03:59:14.335Z,34.75
2024-02-14T04:00:14.506Z,34.73
2024-02-14T04:01:14.510Z,34.71
2024-02-14T04:02:14.491Z,34.73
2024-02-14T04:03:14.728Z,34.70
2024-02-14T04:04:14.602Z,34.70
2024-02-14T04:05:14.696Z,34.68
2024-02-14T04:06:14.866Z,34.72
2024-02-14T04:07:14.737Z,34.67
2024-02-14T04:08:14.863Z,34.67
2024-02-14T04:09:14.881Z,34.65
2024-02-14T04:10:14.925Z,34.64
2024-02-14T04:11:15.141Z,34.64
2024-02-14T04:12:15.087Z,34.63
2024-02-14T04:13:15.069Z,34.62
2024-02-14T04:14:15.160Z,34.61
2024-02-14T04:15:15.220Z,34.60
2024-02-14T04:16:15.285Z,34.59
2024-02-14T04:17:15.282Z,34.58
2024-02-14T04:18:15.439Z,34.59
2024-02-14T04:19:15.528Z,34.60
2024-02-14T04:20:15.467Z,34.60
2024-02-14T04:21:15.690Z,34.62
2024-02-14T04:22:15.609Z,34.60
2024-02-14T04:23:15.624Z,34.60
2024-02-14T04:24:15.663Z,34.61
2024-02-14T04:25:15.755Z,34.60
2024-02-14T04:26:15.789Z,34.62
2024-02-14T04:27:15.877Z,34.60
2024-02-14T04:28:15.910Z,34.59
2024-02-14T04:29:15.991Z,34.60
2024-02-14T04:30:16.085Z,34.63
2024-02-14T04:31:16.135Z,34.62
2024-02-14T04:32:16.195Z,34.61
2024-02-14T04:33:16.432Z,34.61
2024-02-14T04:34:16.338Z,34.63
2024-02-14T04:35:16.331Z,34.65
2024-02-14T04:36:16.374Z,34.63
2024-02-14T04:37:16.459Z,34.63
2024-02-14T04:38:16.501Z,34.64
2024-02-14T04:39:16.624Z,34.65
2024-02-14T04:40:16.624Z,34.62
2024-02-14T04:41:16.675Z,34.62
2024-02-14T04:42:16.797Z,34.64
2024-02-14T04:43:16.792Z,34.65
2024-02-14T04:44:16.855Z,34.64
2024-02-14T04:45:17.026Z,34.65
2024-02-14T04:46:16.960Z,34.67
2024-02-14T04:47:17.038Z,34.66
2024-02-14T04:48:17.258Z,34.65
2024-02-14T04:49:17.286Z,34.68
2024-02-14T04:50:24.733Z,34.79
2024-02-14T04:51:24.774Z,34.75
2024-02-14T04:52:24.741Z,34.74
2024-02-14T04:53:24.753Z,34.75
2024-02-14T04:54:24.703Z,34.72
2024-02-14T04:55:24.720Z,34.72
2024-02-14T04:56:24.878Z,34.76
2024-02-14T04:57:24.782Z,34.69
2024-02-14T04:58:24.713Z,34.72
2024-02-14T04:59:24.752Z,34.71
2024-02-14T05:00:24.790Z,34.70
2024-02-14T05:01:24.793Z,34.70
2024-02-14T05:02:24.761Z,34.67
2024-02-14T05:03:24.859Z,34.66
2024-02-14T05:04:24.744Z,34.67
2024-02-14T05:05:24.822Z,34.70
2024-02-14T05:06:24.945Z,34.70
2024-02-14T05:07:24.754Z,34.72
2024-02-14T05:08:24.754Z,34.69
2024-02-14T05:09:24.755Z,34.70
2024-02-14T05:10:24.774Z,34.70
2024-02-14T05:11:24.767Z,34.70
2024-02-14T05:12:24.888Z,34.74
2024-02-14T05:13:24.919Z,34.74
2024-02-14T05:14:25.009Z,34.75
2024-02-14T05:15:24.983Z,34.75
2024-02-14T05:16:25.125Z,34.78
2024-02-14T05:17:25.177Z,34.78
2024-02-14T05:18:25.274Z,34.78
2024-02-14T05:19:25.366Z,34.80
2024-02-14T05:20:25.353Z,34.81
2024-02-14T05:21:25.883Z,34.82
2024-02-14T05:22:25.493Z,34.84
2024-02-14T05:23:25.528Z,34.85
2024-02-14T05:24:25.601Z,34.83
2024-02-14T05:25:25.688Z,34.84
2024-02-14T05:26:25.728Z,34.85
2024-02-14T05:27:25.749Z,34.86
2024-02-14T05:28:25.841Z,34.84
2024-02-14T05:29:25.858Z,34.85
2024-02-14T05:30:26.085Z,34.86
2024-02-14T05:31:26.364Z,34.86
2024-02-14T05:32:26.153Z,34.92
2024-02-14T05:33:26.356Z,34.91
2024-02-14T05:34:26.369Z,34.93
2024-02-14T05:35:26.286Z,34.95
2024-02-14T05:36:26.401Z,34.96
2024-02-14T05:37:26.396Z,35.00
2024-02-14T05:38:26.511Z,34.98
2024-02-14T05:39:26.552Z,34.97
2024-02-14T05:40:26.599Z,35.02
2024-02-14T05:41:26.869Z,34.98
2024-02-14T05:42:26.769Z,34.95
2024-02-14T05:43:26.789Z,34.95
2024-02-14T05:44:26.858Z,34.91
2024-02-14T05:45:26.952Z,34.91
2024-02-14T05:46:27.361Z,34.91
2024-02-14T05:47:27.157Z,34.91
2024-02-14T05:48:27.237Z,34.93
2024-02-14T05:49:27.354Z,34.90
2024-02-14T05:50:27.300Z,34.95
2024-02-14T05:51:27.378Z,34.96
2024-02-14T05:52:27.350Z,34.95
2024-02-14T05:53:27.515Z,34.93
2024-02-14T05:54:27.549Z,34.95
2024-02-14T05:55:27.629Z,34.91
2024-02-14T05:56:27.743Z,34.93
2024-02-14T05:57:27.717Z,34.92
2024-02-14T05:58:27.813Z,34.95
2024-02-14T05:59:27.906Z,34.94
2024-02-14T06:00:29.298Z,34.91
2024-02-14T06:01:28.417Z,34.93
2024-02-14T06:02:28.072Z,34.87
2024-02-14T06:03:28.195Z,34.90
2024-02-14T06:04:28.229Z,34.90
2024-02-14T06:05:28.385Z,34.91
2024-02-14T06:06:28.456Z,34.89
2024-02-14T06:07:28.381Z,34.88
2024-02-14T06:08:28.475Z,34.89
2024-02-14T06:09:28.544Z,34.89
2024-02-14T06:10:28.600Z,34.94
2024-02-14T06:11:28.692Z,34.89
2024-02-14T06:12:28.707Z,34.91
2024-02-14T06:13:28.851Z,34.91
2024-02-14T06:14:28.921Z,34.93
2024-02-14T06:15:28.885Z,34.93
2024-02-14T06:16:29.362Z,34.96
2024-02-14T06:17:29.102Z,34.96
2024-02-14T06:18:29.199Z,34.99
2024-02-14T06:19:29.311Z,34.95
2024-02-14T06:20:29.306Z,34.95
2024-02-14T06:21:29.291Z,34.98
2024-02-14T06:22:29.334Z,34.99
2024-02-14T06:23:29.545Z,34.94
2024-02-14T06:24:29.509Z,34.97
2024-02-14T06:25:29.571Z,34.92
2024-02-14T06:26:29.685Z,34.93
2024-02-14T06:27:29.713Z,34.97
2024-02-14T06:28:29.747Z,34.98
2024-02-14T06:29:29.973Z,34.98
2024-02-14T06:30:33.196Z,34.97
2024-02-14T06:31:29.914Z,34.99
2024-02-14T06:32:30.077Z,34.99
2024-02-14T06:33:30.171Z,35.03
2024-02-14T06:34:30.250Z,34.99
2024-02-14T06:35:30.652Z,35.00
2024-02-14T06:36:29.947Z,34.99
2024-02-14T06:37:30.536Z,34.96
2024-02-14T06:38:29.972Z,34.99
2024-02-14T06:39:29.991Z,34.97
2024-02-14T06:40:29.929Z,34.95
2024-02-14T06:41:30.977Z,34.96
2024-02-14T06:42:29.913Z,34.94
2024-02-14T06:43:29.908Z,34.91
2024-02-14T06:44:29.952Z,34.90
2024-02-14T06:45:29.902Z,34.87
2024-02-14T06:46:29.912Z,34.87
2024-02-14T06:47:29.950Z,34.86
2024-02-14T06:48:30.127Z,34.88
2024-02-14T06:49:30.062Z,34.87
2024-02-14T06:50:30.036Z,34.83
2024-02-14T06:51:30.359Z,34.84
2024-02-14T06:52:29.998Z,34.86
2024-02-14T06:53:30.123Z,34.81
2024-02-14T06:54:30.135Z,34.81
2024-02-14T06:55:30.242Z,34.82
2024-02-14T06:56:30.290Z,34.81
2024-02-14T06:57:30.356Z,34.81
2024-02-14T06:58:30.411Z,34.81
2024-02-14T06:59:30.459Z,34.79
2024-02-14T07:00:30.645Z,34.84
2024-02-14T07:01:30.585Z,34.81
2024-02-14T07:02:30.628Z,34.84
2024-02-14T07:03:30.754Z,34.84
2024-02-14T07:04:30.858Z,34.81
2024-02-14T07:05:31.089Z,34.79
2024-02-14T07:06:30.945Z,34.80
2024-02-14T07:07:30.898Z,34.80
2024-02-14T07:08:30.990Z,34.76
2024-02-14T07:09:31.049Z,34.74
2024-02-14T07:10:31.101Z,34.73
2024-02-14T07:11:31.160Z,34.72
2024-02-14T07:12:31.195Z,34.73
2024-02-14T07:13:31.237Z,34.70
2024-02-14T07:14:31.354Z,34.72
2024-02-14T07:15:31.301Z,34.70
2024-02-14T07:16:31.403Z,34.72
2024-02-14T07:17:31.537Z,34.71
2024-02-14T07:18:31.637Z,34.72
2024-02-14T07:19:31.648Z,34.71
2024-02-14T07:20:31.674Z,34.72
2024-02-14T07:21:31.876Z,34.70
2024-02-14T07:22:31.927Z,34.72
2024-02-14T07:23:31.781Z,34.71
2024-02-14T07:24:31.851Z,34.72
2024-02-14T07:25:31.918Z,34.71
2024-02-14T07:26:32.013Z,34.70
2024-02-14T07:27:32.017Z,34.72
2024-02-14T07:28:32.116Z,34.72
2024-02-14T07:29:32.271Z,34.73
2024-02-14T07:30:32.224Z,34.72
2024-02-14T07:31:32.235Z,34.70
2024-02-14T07:32:32.403Z,34.70
2024-02-14T07:33:32.541Z,34.68
2024-02-14T07:34:32.606Z,34.69
2024-02-14T07:35:32.521Z,34.71
2024-02-14T07:36:32.540Z,34.69
2024-02-14T07:37:32.595Z,34.69
2024-02-14T07:38:32.668Z,34.69
2024-02-14T07:39:32.696Z,34.68
2024-02-14T07:40:32.698Z,34.67
2024-02-14T07:41:32.894Z,34.65
2024-02-14T07:42:32.821Z,34.68
2024-02-14T07:43:32.908Z,34.67
2024-02-14T07:44:32.998Z,34.66
2024-02-14T07:45:33.130Z,34.66
2024-02-14T07:46:33.015Z,34.65
2024-02-14T07:47:33.130Z,34.67
2024-02-14T07:48:33.214Z,34.62
2024-02-14T07:49:33.235Z,34.61
2024-02-14T07:50:33.356Z,34.58
2024-02-14T07:51:33.339Z,34.59
2024-02-14T07:52:35.708Z,34.58
2024-02-14T07:53:33.388Z,34.58
2024-02-14T07:54:33.360Z,34.58
2024-02-14T07:55:33.382Z,34.59
2024-02-14T07:56:33.396Z,34.60
2024-02-14T07:57:33.364Z,34.56
2024-02-14T07:58:33.343Z,34.57
2024-02-14T07:59:33.417Z,34.57
2024-02-14T08:00:33.430Z,34.58
2024-02-14T08:01:33.381Z,34.58
2024-02-14T08:02:33.363Z,34.57
2024-02-14T08:03:33.378Z,34.54
2024-02-14T08:04:33.367Z,34.55
2024-02-14T08:05:33.398Z,34.54
2024-02-14T08:06:34.011Z,34.54
2024-02-14T08:07:33.438Z,34.54
2024-02-14T08:08:33.368Z,34.54
2024-02-14T08:09:33.377Z,34.53
2024-02-14T08:10:33.400Z,34.54
2024-02-14T08:11:33.406Z,34.52
2024-02-14T08:12:33.408Z,34.50
2024-02-14T08:13:33.400Z,34.53
2024-02-14T08:14:33.399Z,34.53
2024-02-14T08:15:33.400Z,34.52
2024-02-14T08:16:33.401Z,34.51
2024-02-14T08:17:33.628Z,34.53
2024-02-14T08:18:33.510Z,34.52
2024-02-14T08:19:33.576Z,34.51
2024-02-14T08:20:33.668Z,34.50
2024-02-14T08:21:33.941Z,34.51
2024-02-14T08:22:33.606Z,34.50
2024-02-14T08:23:33.664Z,34.48
2024-02-14T08:24:33.772Z,34.46
2024-02-14T08:25:33.765Z,34.47
2024-02-14T08:26:34.141Z,34.48
2024-02-14T08:27:33.921Z,34.48
2024-02-14T08:28:33.995Z,34.48
2024-02-14T08:29:34.094Z,34.47
2024-02-14T08:30:34.288Z,34.46
2024-02-14T08:31:34.210Z,34.43
2024-02-14T08:32:34.396Z,34.44
2024-02-14T08:33:34.481Z,34.42
2024-02-14T08:34:34.710Z,34.43
2024-02-14T08:35:41.690Z,34.44
2024-02-14T08:36:35.478Z,34.43
2024-02-14T08:37:34.560Z,34.44
2024-02-14T08:38:34.438Z,34.41
2024-02-14T08:39:34.416Z,34.45
2024-02-14T08:40:34.447Z,34.44
2024-02-14T08:41:34.474Z,34.44
2024-02-14T08:42:34.458Z,34.46
2024-02-14T08:43:34.446Z,34.44
2024-02-14T08:44:34.527Z,34.46
2024-02-14T08:45:34.463Z,34.45
2024-02-14T08:46:34.482Z,34.47
2024-02-14T08:47:34.526Z,34.47
2024-02-14T08:48:34.571Z,34.47
2024-02-14T08:49:34.517Z,34.49
2024-02-14T08:50:34.503Z,34.48
2024-02-14T08:51:34.457Z,34.48
2024-02-14T08:52:34.486Z,34.46
2024-02-14T08:53:34.525Z,34.43
2024-02-14T08:54:34.491Z,34.43
2024-02-14T08:55:34.590Z,34.43
2024-02-14T08:56:34.763Z,34.44
2024-02-14T08:57:34.535Z,34.44
2024-02-14T08:58:35.374Z,34.44
2024-02-14T08:59:34.692Z,34.44
2024-02-14T09:00:34.767Z,34.47
2024-02-14T09:01:34.900Z,34.49
2024-02-14T09:02:34.903Z,34.47
2024-02-14T09:03:35.040Z,34.48
2024-02-14T09:04:35.065Z,34.43
2024-02-14T09:05:35.217Z,34.41
2024-02-14T09:06:35.519Z,34.39
2024-02-14T09:07:35.219Z,34.37
2024-02-14T09:08:35.355Z,34.35
2024-02-14T09:09:35.375Z,34.33
2024-02-14T09:10:35.465Z,34.36
2024-02-14T09:11:35.589Z,34.34
2024-02-14T09:12:35.574Z,34.35
2024-02-14T09:13:35.637Z,34.35
2024-02-14T09:14:35.717Z,34.33
2024-02-14T09:15:35.800Z,34.33
2024-02-14T09:16:35.898Z,34.31
2024-02-14T09:17:35.970Z,34.31
2024-02-14T09:18:36.060Z,34.29
2024-02-14T09:19:36.096Z,34.26
2024-02-14T09:20:36.347Z,34.24
2024-02-14T09:21:36.230Z,34.23
2024-02-14T09:22:36.268Z,34.17
2024-02-14T09:23:36.352Z,34.21
2024-02-14T09:24:36.390Z,34.16
2024-02-14T09:25:36.429Z,34.16
2024-02-14T09:26:36.935Z,34.17
2024-02-14T09:27:36.562Z,34.15
2024-02-14T09:28:36.608Z,34.09
2024-02-14T09:29:36.719Z,34.06
2024-02-14T09:30:39.161Z,34.01
2024-02-14T09:31:36.779Z,34.01
2024-02-14T09:32:36.848Z,33.99
2024-02-14T09:33:36.858Z,33.92
2024-02-14T09:34:37.021Z,33.92
2024-02-14T09:35:36.863Z,33.93
2024-02-14T09:36:36.920Z,33.92
2024-02-14T09:37:36.779Z,33.88
2024-02-14T09:38:36.850Z,33.88
2024-02-14T09:39:36.790Z,33.87
2024-02-14T09:40:36.770Z,33.87
2024-02-14T09:41:36.831Z,33.87
2024-02-14T09:42:36.770Z,33.85
2024-02-14T09:43:36.793Z,33.83
2024-02-14T09:44:36.781Z,33.83
2024-02-14T09:45:36.790Z,33.80
2024-02-14T09:46:36.787Z,33.78
2024-02-14T09:47:36.952Z,33.75
2024-02-14T09:48:36.966Z,33.75
2024-02-14T09:49:36.931Z,33.71
2024-02-14T09:50:36.893Z,33.71
2024-02-14T09:51:36.817Z,33.70
2024-02-14T09:52:36.772Z,33.68
2024-02-14T09:53:36.781Z,33.68
2024-02-14T09:54:36.820Z,33.65
2024-02-14T09:55:36.769Z,33.67
2024-02-14T09:56:36.818Z,33.67
2024-02-14T09:57:36.802Z,33.65
2024-02-14T09:58:36.782Z,33.66
2024-02-14T09:59:36.787Z,33.53
2024-02-14T10:00:36.810Z,33.71
2024-02-14T10:01:36.821Z,33.76
2024-02-14T10:02:36.814Z,33.79
2024-02-14T10:03:36.802Z,33.82
2024-02-14T10:04:36.880Z,33.86
2024-02-14T10:05:36.825Z,33.88
2024-02-14T10:06:36.970Z,33.90
2024-02-14T10:07:36.774Z,33.92
2024-02-14T10:08:40.280Z,33.94
2024-02-14T10:09:37.836Z,33.98
2024-02-14T10:10:36.832Z,33.99
2024-02-14T10:11:36.928Z,34.00
2024-02-14T10:12:36.826Z,34.00
2024-02-14T10:13:36.804Z,34.00
2024-02-14T10:14:36.831Z,34.04
2024-02-14T10:15:36.825Z,34.05
2024-02-14T10:16:36.814Z,34.06
2024-02-14T10:17:36.865Z,34.09
2024-02-14T10:18:36.918Z,34.07
2024-02-14T10:19:36.906Z,34.09
2024-02-14T10:20:36.873Z,34.10
2024-02-14T10:21:36.849Z,34.10
2024-02-14T10:22:36.837Z,34.10
2024-02-14T10:23:36.832Z,34.11
2024-02-14T10:24:36.830Z,34.10
2024-02-14T10:25:36.838Z,34.10
2024-02-14T10:26:36.976Z,34.12
2024-02-14T10:27:36.853Z,34.13
2024-02-14T10:28:43.414Z,34.14
2024-02-14T10:29:37.887Z,34.17
2024-02-14T10:30:36.834Z,34.15
2024-02-14T10:31:36.918Z,34.15
2024-02-14T10:32:36.926Z,34.14
2024-02-14T10:33:36.946Z,34.16
2024-02-14T10:34:36.923Z,34.17
2024-02-14T10:35:36.972Z,34.15
2024-02-14T10:36:37.056Z,34.16
2024-02-14T10:37:36.881Z,34.15
2024-02-14T10:38:37.001Z,34.16
2024-02-14T10:39:36.883Z,34.15
2024-02-14T10:40:36.895Z,34.17
2024-02-14T10:41:36.882Z,34.16
2024-02-14T10:42:36.882Z,34.16
2024-02-14T10:43:36.911Z,34.17
2024-02-14T10:44:36.913Z,34.18
2024-02-14T10:45:36.889Z,34.18
2024-02-14T10:46:36.906Z,34.19
2024-02-14T10:47:36.981Z,34.18
2024-02-14T10:48:37.101Z,34.18
2024-02-14T10:49:37.087Z,34.18
2024-02-14T10:50:36.884Z,34.17
2024-02-14T10:51:36.927Z,34.17
2024-02-14T10:52:36.897Z,34.17
2024-02-14T10:53:36.936Z,34.19
2024-02-14T10:54:36.987Z,34.21
2024-02-14T10:55:36.911Z,34.19
2024-02-14T10:56:36.964Z,34.20
2024-02-14T10:57:36.958Z,34.19
2024-02-14T10:58:36.935Z,34.18
2024-02-14T10:59:36.944Z,34.18
2024-02-14T11:00:36.929Z,34.19
2024-02-14T11:01:37.401Z,34.19
2024-02-14T11:02:37.039Z,34.18
2024-02-14T11:03:37.119Z,34.16
2024-02-14T11:04:36.917Z,34.19
2024-02-14T11:05:36.981Z,34.18
2024-02-14T11:06:37.030Z,34.18
2024-02-14T11:07:36.933Z,34.18
2024-02-14T11:08:37.101Z,34.19
2024-02-14T11:09:39.705Z,34.19
2024-02-14T11:10:37.151Z,34.19
2024-02-14T11:11:37.453Z,34.19
2024-02-14T11:12:36.998Z,34.20
2024-02-14T11:13:37.009Z,34.19
2024-02-14T11:14:37.117Z,34.17
2024-02-14T11:15:37.034Z,34.18
2024-02-14T11:16:37.455Z,34.17
2024-02-14T11:17:37.114Z,34.18
2024-02-14T11:18:37.186Z,34.20
2024-02-14T11:19:37.286Z,34.17
2024-02-14T11:20:37.170Z,34.18
2024-02-14T11:21:37.108Z,34.17
2024-02-14T11:22:37.050Z,34.19
2024-02-14T11:23:37.085Z,34.16
2024-02-14T11:24:37.025Z,34.18
2024-02-14T11:25:37.052Z,34.18
2024-02-14T11:26:37.094Z,34.18
2024-02-14T11:27:37.497Z,34.19
2024-02-14T11:28:36.999Z,34.18
2024-02-14T11:29:37.068Z,34.18
2024-02-14T11:30:37.024Z,34.18
2024-02-14T11:31:37.025Z,34.17
2024-02-14T11:32:37.129Z,34.18
2024-02-14T11:33:37.144Z,34.17
2024-02-14T11:34:38.466Z,34.19
2024-02-14T11:35:37.990Z,34.18
2024-02-14T11:36:37.089Z,34.19
2024-02-14T11:37:37.435Z,34.18
2024-02-14T11:38:37.076Z,34.18
2024-02-14T11:39:37.022Z,34.18
2024-02-14T11:40:37.090Z,34.18
2024-02-14T11:41:37.179Z,34.18
2024-02-14T11:42:37.211Z,34.19
2024-02-14T11:43:37.287Z,34.19
2024-02-14T11:44:37.370Z,34.19
2024-02-14T11:45:37.412Z,34.18
2024-02-14T11:46:37.460Z,34.19
2024-02-14T11:47:37.615Z,34.18
2024-02-14T11:48:40.191Z,34.19
2024-02-14T11:49:37.662Z,34.18
2024-02-14T11:50:37.570Z,34.19
2024-02-14T11:51:37.535Z,34.19
2024-02-14T11:52:37.547Z,34.18
2024-02-14T11:53:37.590Z,34.20
2024-02-14T11:54:37.523Z,34.17
2024-02-14T11:55:37.541Z,34.15
2024-02-14T11:56:37.751Z,34.19
2024-02-14T11:57:37.552Z,34.18
2024-02-14T11:58:37.577Z,34.18
2024-02-14T11:59:37.585Z,34.18
2024-02-14T12:00:37.599Z,34.16
2024-02-14T12:01:37.603Z,34.20
2024-02-14T12:02:37.600Z,34.19
2024-02-14T12:03:37.559Z,34.18
2024-02-14T12:04:38.332Z,34.20
2024-02-14T12:05:37.860Z,34.17
2024-02-14T12:06:37.786Z,34.19
2024-02-14T12:07:37.662Z,34.17
2024-02-14T12:08:37.568Z,34.17
2024-02-14T12:09:37.533Z,34.17
2024-02-14T12:10:37.563Z,34.18
2024-02-14T12:11:37.568Z,34.19
2024-02-14T12:12:37.937Z,34.18
2024-02-14T12:13:37.530Z,34.20
2024-02-14T12:14:37.629Z,34.17
2024-02-14T12:15:37.564Z,34.16
2024-02-14T12:16:37.609Z,34.18
2024-02-14T12:17:37.650Z,34.17
2024-02-14T12:18:37.781Z,34.16
2024-02-14T12:19:37.747Z,34.16
2024-02-14T12:20:37.619Z,34.17
2024-02-14T12:21:37.548Z,34.15
2024-02-14T12:22:37.656Z,34.17
2024-02-14T12:23:37.586Z,34.17
2024-02-14T12:24:37.630Z,34.17
2024-02-14T12:25:37.582Z,34.17
2024-02-14T12:26:37.684Z,34.14
2024-02-14T12:27:37.564Z,34.16
2024-02-14T12:28:37.594Z,34.14
2024-02-14T12:29:37.609Z,34.14
2024-02-14T12:30:37.569Z,34.17
2024-02-14T12:31:37.661Z,34.15
2024-02-14T12:32:37.657Z,34.14
2024-02-14T12:33:37.714Z,34.14
2024-02-14T12:34:37.821Z,34.14
2024-02-14T12:35:37.617Z,34.15
2024-02-14T12:36:37.604Z,34.14
2024-02-14T12:37:37.618Z,34.14
2024-02-14T12:38:37.589Z,34.13
2024-02-14T12:39:40.124Z,34.12
2024-02-14T12:40:37.624Z,34.12
2024-02-14T12:41:37.634Z,34.13
2024-02-14T12:42:37.571Z,34.14
2024-02-14T12:43:37.575Z,34.15
2024-02-14T12:44:37.715Z,34.14
2024-02-14T12:45:37.595Z,34.14
2024-02-14T12:46:37.562Z,34.17
2024-02-14T12:47:37.742Z,34.15
2024-02-14T12:48:37.772Z,34.15
2024-02-14T12:49:37.734Z,34.14
2024-02-14T12:50:37.698Z,34.14
2024-02-14T12:51:37.727Z,34.15
2024-02-14T12:52:37.611Z,34.13